Messwerte Karadsch

Temperatur

Temperatur
°C
1579458600 22.00 22.00 0
1579462200 23.00 23.00
1579465800 0.00 0.00
1579469400 1.00 1.00 -1
1579473000 2.00 2.00
1579476600 3.00 3.00
1579480200 4.00 4.00 -2
1579483800 5.00 5.00
1579487400 6.00 6.00 -4
1579491000 7.00 7.00 -3
1579494600 8.00 8.00 -3
1579498200 9.00 9.00 -3
1579501800 10.00 10.00 -3
1579505400 11.00 11.00 -1
1579509000 12.00 12.00 0
1579512600 13.00 13.00 0
1579516200 14.00 14.00 1
1579519800 15.00 15.00 2
1579523400 16.00 16.00 2
1579527000 17.00 17.00 1
1579530600 18.00 18.00 0
1579534200 19.00 19.00 -2
1579537800 20.00 20.00 -2
1579541400 21.00 21.00 -4

Aktuellste Messwerte

Wettercharakter
Wetter: meist klar
Temperatur
-3 °C
Feuchtigkeit
93 %
Wind
20 km/hWindrichtung: West
Luftdruck
1020 hPa
Messzeit: 20. Januar 2020, 21.30Datenquelle: METAR

Weitere Messstationen in der Nähe

Messstation Temperatur Entfernung
Teheran 0 °C 46 km
Teheran-Robat Karim 1 °C 49 km
Ghazvin -3 °C 91 km
Noshahr 7 °C 113 km
Ramsar 7 °C 125 km
Rasht - 191 km
Zanjan - 233 km

Wind

Windrichtung Böen Mittelwind
° km/h km/h
1579458600 22.00 21.00 - 22.00 290° 5
1579462200 23.00 22.00 - 23.00
1579465800 0.00 23.00 - 0.00
1579469400 1.00 0.00 - 1.00 280° 5
1579473000 2.00 1.00 - 2.00
1579476600 3.00 2.00 - 3.00
1579480200 4.00 3.00 - 4.00 330° 15
1579483800 5.00 4.00 - 5.00
1579487400 6.00 5.00 - 6.00 300° 15
1579491000 7.00 6.00 - 7.00 340° 10
1579494600 8.00 7.00 - 8.00 290° 10
1579498200 9.00 8.00 - 9.00 350° 15
1579501800 10.00 9.00 - 10.00 330° 20
1579505400 11.00 10.00 - 11.00 280° 15
1579509000 12.00 11.00 - 12.00 300° 15
1579512600 13.00 12.00 - 13.00 280° 15
1579516200 14.00 13.00 - 14.00 290° 15
1579519800 15.00 14.00 - 15.00 270° 10
1579523400 16.00 15.00 - 16.00 260° 15
1579527000 17.00 16.00 - 17.00 280° 25
1579530600 18.00 17.00 - 18.00 280° 20
1579534200 19.00 18.00 - 19.00 310° 20
1579537800 20.00 19.00 - 20.00 270° 20
1579541400 21.00 20.00 - 21.00 290° 15

Ihre Wetterstation

Fehlt Ihre Wetterstation auf unserem Portal?

Schreiben Sie an network@meteonews.ch

Klima

Wann ist es am wärmsten? Wann regnet es am wenigsten? Unsere Klimadaten geben Auskunft.